createdAt,value
2023-05-13T00:01:59.849Z,4.13
2023-05-13T00:04:26.703Z,4.40
2023-05-13T00:06:53.290Z,4.60
2023-05-13T00:09:19.852Z,4.47
2023-05-13T00:11:46.409Z,5.18
2023-05-13T00:14:12.981Z,3.90
2023-05-13T00:16:39.683Z,4.53
2023-05-13T00:19:31.749Z,4.60
2023-05-13T00:21:58.341Z,4.78
2023-05-13T00:24:24.977Z,4.50
2023-05-13T00:26:51.518Z,5.03
2023-05-13T00:29:18.069Z,4.70
2023-05-13T00:31:44.807Z,4.57
2023-05-13T00:34:11.945Z,6.63
2023-05-13T00:36:38.854Z,4.55
2023-05-13T00:39:05.609Z,5.68
2023-05-13T00:41:32.264Z,5.47
2023-05-13T00:43:58.808Z,5.32
2023-05-13T00:46:25.743Z,5.30
2023-05-13T00:48:52.579Z,5.35
2023-05-13T00:51:19.177Z,4.80
2023-05-13T00:53:46.328Z,5.35
2023-05-13T00:56:14.076Z,5.10
2023-05-13T00:58:40.624Z,5.53
2023-05-13T01:01:21.029Z,5.20
2023-05-13T01:04:03.936Z,5.28
2023-05-13T01:06:45.088Z,5.40
2023-05-13T01:09:34.806Z,5.88
2023-05-13T01:15:13.957Z,5.40
2023-05-13T01:18:05.180Z,5.28
2023-05-13T01:20:34.538Z,5.97
2023-05-13T01:23:01.172Z,6.43
2023-05-13T01:25:27.807Z,6.25
2023-05-13T01:27:54.700Z,5.53
2023-05-13T01:30:23.711Z,5.68
2023-05-13T01:32:51.767Z,5.63
2023-05-13T01:35:20.596Z,5.90
2023-05-13T01:37:50.132Z,5.70
2023-05-13T01:40:31.050Z,5.68
2023-05-13T01:43:01.588Z,5.30
2023-05-13T01:45:30.130Z,5.75
2023-05-13T01:47:57.609Z,5.67
2023-05-13T01:50:26.350Z,5.53
2023-05-13T01:52:52.928Z,5.82
2023-05-13T01:55:19.792Z,5.75
2023-05-13T01:57:48.289Z,5.70
2023-05-13T02:00:16.300Z,5.75
2023-05-13T02:02:43.012Z,5.78
2023-05-13T02:05:09.980Z,5.55
2023-05-13T02:07:38.935Z,5.47
2023-05-13T02:10:06.184Z,5.70
2023-05-13T02:12:32.985Z,5.55
2023-05-13T02:14:59.553Z,6.43
2023-05-13T02:17:26.263Z,6.13
2023-05-13T02:19:53.653Z,5.38
2023-05-13T02:22:20.298Z,5.75
2023-05-13T02:24:46.818Z,6.18
2023-05-13T02:27:16.182Z,6.43
2023-05-13T02:29:42.842Z,6.38
2023-05-13T02:32:09.977Z,6.30
2023-05-13T02:34:36.815Z,6.05
2023-05-13T02:37:03.989Z,6.10
2023-05-13T02:39:31.402Z,6.15
2023-05-13T02:41:59.786Z,6.00
2023-05-13T02:44:31.426Z,5.93
2023-05-13T02:46:58.062Z,6.03
2023-05-13T02:49:24.802Z,6.63
2023-05-13T02:51:51.399Z,6.25
2023-05-13T02:54:22.969Z,6.40
2023-05-13T02:56:49.626Z,6.90
2023-05-13T02:59:16.349Z,6.55
2023-05-13T03:01:43.225Z,7.22
2023-05-13T03:04:09.993Z,6.93
2023-05-13T03:06:36.548Z,6.55
2023-05-13T03:09:03.180Z,6.72
2023-05-13T03:11:29.756Z,7.63
2023-05-13T03:13:56.355Z,6.68
2023-05-13T03:16:22.960Z,7.18
2023-05-13T03:18:49.544Z,6.93
2023-05-13T03:21:17.584Z,6.72
2023-05-13T03:23:44.290Z,7.05
2023-05-13T03:26:11.081Z,6.40
2023-05-13T03:28:37.705Z,7.18
2023-05-13T03:31:04.651Z,7.20
2023-05-13T03:33:35.536Z,7.68
2023-05-13T03:36:02.192Z,6.57
2023-05-13T03:38:31.574Z,7.53
2023-05-13T03:40:58.389Z,7.18
2023-05-13T03:43:25.652Z,7.25
2023-05-13T03:45:57.189Z,7.50
2023-05-13T03:48:23.876Z,7.45
2023-05-13T03:50:50.759Z,7.78
2023-05-13T03:53:18.763Z,7.53
2023-05-13T03:55:46.129Z,7.80
2023-05-13T03:58:14.879Z,7.82
2023-05-13T04:00:42.812Z,8.27
2023-05-13T04:03:09.557Z,8.10
2023-05-13T04:05:36.202Z,8.50
2023-05-13T04:08:02.827Z,7.95
2023-05-13T04:10:29.465Z,8.23
2023-05-13T04:12:57.377Z,7.20
2023-05-13T04:15:24.048Z,7.75
2023-05-13T04:17:52.488Z,7.90
2023-05-13T04:20:19.993Z,8.25
2023-05-13T04:22:48.437Z,7.00
2023-05-13T04:25:15.835Z,7.78
2023-05-13T04:27:42.684Z,7.10
2023-05-13T04:30:17.165Z,7.50
2023-05-13T04:32:44.303Z,7.10
2023-05-13T04:35:12.444Z,8.30
2023-05-13T04:37:40.120Z,7.32
2023-05-13T04:40:10.359Z,8.15
2023-05-13T04:42:37.370Z,8.05
2023-05-13T04:45:04.410Z,7.65
2023-05-13T04:47:35.027Z,7.68
2023-05-13T04:50:02.118Z,8.27
2023-05-13T04:52:30.282Z,8.60
2023-05-13T04:54:56.990Z,8.68
2023-05-13T04:57:23.638Z,8.50
2023-05-13T04:59:50.789Z,7.65
2023-05-13T05:02:17.716Z,8.43
2023-05-13T05:04:44.912Z,9.20
2023-05-13T05:07:13.782Z,8.77
2023-05-13T05:09:40.565Z,7.10
2023-05-13T05:12:07.783Z,6.43
2023-05-13T05:14:38.096Z,5.68
2023-05-13T05:17:05.918Z,5.93
2023-05-13T05:19:32.675Z,5.70
2023-05-13T05:21:59.349Z,6.25
2023-05-13T05:24:26.450Z,5.00
2023-05-13T05:26:53.036Z,5.40
2023-05-13T05:29:19.809Z,5.50
2023-05-13T05:31:46.496Z,5.70
2023-05-13T05:34:14.538Z,5.43
2023-05-13T05:36:42.652Z,5.60
2023-05-13T05:39:13.656Z,5.00
2023-05-13T05:41:40.240Z,5.47
2023-05-13T05:44:06.915Z,5.20
2023-05-13T05:46:34.104Z,4.75
2023-05-13T05:49:03.510Z,4.45
2023-05-13T05:51:32.334Z,4.95
2023-05-13T05:54:01.710Z,4.95
2023-05-13T05:56:28.454Z,4.78
2023-05-13T05:58:55.248Z,4.80
2023-05-13T06:01:21.833Z,4.68
2023-05-13T06:03:48.499Z,5.07
2023-05-13T06:06:16.552Z,4.72
2023-05-13T06:08:44.399Z,4.68
2023-05-13T06:11:11.091Z,5.00
2023-05-13T06:13:38.459Z,4.68
2023-05-13T06:16:05.793Z,4.70
2023-05-13T06:18:32.429Z,4.85
2023-05-13T06:20:59.066Z,5.10
2023-05-13T06:23:25.675Z,5.05
2023-05-13T06:25:52.559Z,5.78
2023-05-13T06:28:19.284Z,5.10
2023-05-13T06:30:46.061Z,5.20
2023-05-13T06:33:12.984Z,4.80
2023-05-13T06:35:39.765Z,4.78
2023-05-13T06:38:07.309Z,4.95
2023-05-13T06:40:35.132Z,5.10
2023-05-13T06:43:02.286Z,5.05
2023-05-13T06:45:31.171Z,5.03
2023-05-13T06:47:58.163Z,5.30
2023-05-13T06:50:25.159Z,5.10
2023-05-13T06:52:52.131Z,5.32
2023-05-13T06:55:19.046Z,5.10
2023-05-13T06:57:46.885Z,5.13
2023-05-13T07:00:16.467Z,5.05
2023-05-13T07:05:12.531Z,5.22
2023-05-13T07:07:39.307Z,4.53
2023-05-13T07:10:06.170Z,4.47
2023-05-13T07:12:33.274Z,5.03
2023-05-13T07:14:59.917Z,5.57
2023-05-13T07:17:26.667Z,4.70
2023-05-13T07:19:53.389Z,4.65
2023-05-13T07:22:20.033Z,5.10
2023-05-13T07:24:46.699Z,4.50
2023-05-13T07:27:13.311Z,4.60
2023-05-13T07:29:39.906Z,4.88
2023-05-13T07:32:07.394Z,4.45
2023-05-13T07:34:34.047Z,4.35
2023-05-13T07:37:00.678Z,4.28
2023-05-13T07:39:27.811Z,4.40
2023-05-13T07:41:54.941Z,4.65
2023-05-13T07:44:21.793Z,4.38
2023-05-13T07:46:49.385Z,4.30
2023-05-13T07:49:16.431Z,4.47
2023-05-13T07:51:43.091Z,4.40
2023-05-13T07:54:10.083Z,4.57
2023-05-13T07:56:38.036Z,4.10
2023-05-13T07:59:04.810Z,4.55
2023-05-13T08:01:31.461Z,4.57
2023-05-13T08:03:58.215Z,4.57
2023-05-13T08:06:25.029Z,4.13
2023-05-13T08:08:51.592Z,4.90
2023-05-13T08:11:18.122Z,4.25
2023-05-13T08:13:44.676Z,4.80
2023-05-13T08:16:11.453Z,4.43
2023-05-13T08:18:38.107Z,3.85
2023-05-13T08:21:04.943Z,3.88
2023-05-13T08:23:44.047Z,3.83
2023-05-13T08:26:11.956Z,4.10
2023-05-13T08:28:38.571Z,3.97
2023-05-13T08:31:05.336Z,3.78
2023-05-13T08:33:32.865Z,4.10
2023-05-13T08:36:00.966Z,4.25
2023-05-13T08:38:27.586Z,3.97
2023-05-13T08:40:54.211Z,3.95
2023-05-13T08:43:24.215Z,3.97
2023-05-13T08:45:53.502Z,3.85
2023-05-13T08:50:47.906Z,3.92
2023-05-13T08:53:17.479Z,3.72
2023-05-13T08:55:44.464Z,4.47
2023-05-13T08:58:11.824Z,4.05
2023-05-13T09:00:39.050Z,3.67
2023-05-13T09:03:05.752Z,3.92
2023-05-13T09:05:34.166Z,4.10
2023-05-13T09:10:33.690Z,3.85
2023-05-13T09:13:01.839Z,3.80
2023-05-13T09:15:29.153Z,3.30
2023-05-13T09:18:04.422Z,4.22
2023-05-13T09:20:32.375Z,3.72
2023-05-13T09:23:01.930Z,4.03
2023-05-13T09:25:29.613Z,4.07
2023-05-13T09:28:03.757Z,3.47
2023-05-13T09:30:40.640Z,3.65
2023-05-13T09:33:20.021Z,3.55
2023-05-13T09:35:53.730Z,4.18
2023-05-13T09:38:25.309Z,3.58
2023-05-13T09:41:10.321Z,4.10
2023-05-13T09:43:38.922Z,4.10
2023-05-13T09:46:05.738Z,3.90
2023-05-13T09:48:33.974Z,3.78
2023-05-13T09:51:00.908Z,3.90
2023-05-13T09:53:28.407Z,3.63
2023-05-13T09:55:57.100Z,3.60
2023-05-13T09:58:25.767Z,3.75
2023-05-13T10:00:52.812Z,3.42
2023-05-13T10:03:19.648Z,3.42
2023-05-13T10:05:48.504Z,4.07
2023-05-13T10:08:17.099Z,4.65
2023-05-13T10:10:46.200Z,4.45
2023-05-13T10:15:51.675Z,3.63
2023-05-13T10:18:20.138Z,4.05
2023-05-13T10:20:47.668Z,4.00
2023-05-13T10:23:14.243Z,4.20
2023-05-13T10:25:42.967Z,3.65
2023-05-13T10:28:10.765Z,3.75
2023-05-13T10:30:38.987Z,4.05
2023-05-13T10:33:05.987Z,4.03
2023-05-13T10:35:38.167Z,3.72
2023-05-13T10:38:30.474Z,4.03
2023-05-13T10:41:10.163Z,4.35
2023-05-13T10:43:37.402Z,3.95
2023-05-13T10:46:11.433Z,3.95
2023-05-13T10:48:59.477Z,4.15
2023-05-13T10:51:26.734Z,4.47
2023-05-13T10:53:55.647Z,4.05
2023-05-13T10:56:24.418Z,3.58
2023-05-13T10:59:18.229Z,3.67
2023-05-13T11:01:46.594Z,4.35
2023-05-13T11:04:16.038Z,3.70
2023-05-13T11:06:46.218Z,3.58
2023-05-13T11:09:31.159Z,4.20
2023-05-13T11:12:00.852Z,3.42
2023-05-13T11:14:30.275Z,3.60
2023-05-13T11:16:59.712Z,4.00
2023-05-13T11:19:28.526Z,3.60
2023-05-13T11:21:57.828Z,3.58
2023-05-13T11:26:56.491Z,3.60
2023-05-13T11:29:36.184Z,3.80
2023-05-13T11:32:04.960Z,4.32
2023-05-13T11:34:32.852Z,4.50
2023-05-13T11:37:05.106Z,4.13
2023-05-13T11:39:33.147Z,3.58
2023-05-13T11:42:03.927Z,4.20
2023-05-13T11:44:31.006Z,4.32
2023-05-13T11:47:02.404Z,3.40
2023-05-13T11:49:33.513Z,4.10
2023-05-13T11:52:08.817Z,4.00
2023-05-13T11:54:49.629Z,4.10
2023-05-13T11:57:32.666Z,3.70
2023-05-13T12:00:00.864Z,4.03
2023-05-13T12:02:29.959Z,3.58
2023-05-13T12:07:27.014Z,3.35
2023-05-13T12:09:57.784Z,4.55
2023-05-13T12:12:25.158Z,3.95
2023-05-13T12:14:52.993Z,3.53
2023-05-13T12:17:21.417Z,3.80
2023-05-13T12:20:13.317Z,3.33
2023-05-13T12:22:43.423Z,3.20
2023-05-13T12:25:31.996Z,3.53
2023-05-13T12:27:59.425Z,3.42
2023-05-13T12:30:26.277Z,3.17
2023-05-13T12:32:58.819Z,2.92
2023-05-13T12:35:25.382Z,3.20
2023-05-13T12:38:02.096Z,2.88
2023-05-13T12:40:29.073Z,2.80
2023-05-13T12:43:00.008Z,3.45
2023-05-13T12:45:31.648Z,3.03
2023-05-13T12:47:59.210Z,3.05
2023-05-13T12:50:26.286Z,3.10
2023-05-13T12:52:53.922Z,3.33
2023-05-13T12:55:21.107Z,3.65
2023-05-13T12:58:00.746Z,3.38
2023-05-13T13:00:27.842Z,3.35
2023-05-13T13:02:54.611Z,3.47
2023-05-13T13:05:22.269Z,3.10
2023-05-13T13:07:49.534Z,3.15
2023-05-13T13:10:16.511Z,3.38
2023-05-13T13:12:43.729Z,3.22
2023-05-13T13:15:11.074Z,3.38
2023-05-13T13:17:37.730Z,2.92
2023-05-13T13:20:06.841Z,3.08
2023-05-13T13:22:34.448Z,2.90
2023-05-13T13:25:01.031Z,2.78
2023-05-13T13:27:27.639Z,3.10
2023-05-13T13:29:54.263Z,2.63
2023-05-13T13:32:20.983Z,2.83
2023-05-13T13:34:47.650Z,3.17
2023-05-13T13:37:14.241Z,2.70
2023-05-13T13:39:40.991Z,2.70
2023-05-13T13:42:07.759Z,2.80
2023-05-13T13:44:36.657Z,2.72
2023-05-13T13:47:03.338Z,2.80
2023-05-13T13:49:29.918Z,2.70
2023-05-13T13:51:56.507Z,2.65
2023-05-13T13:54:23.202Z,2.65
2023-05-13T13:56:49.851Z,2.80
2023-05-13T13:59:19.080Z,2.53
2023-05-13T14:04:14.871Z,2.90
2023-05-13T14:06:42.389Z,3.05
2023-05-13T14:09:10.377Z,2.92
2023-05-13T14:11:37.363Z,2.55
2023-05-13T14:14:04.542Z,3.03
2023-05-13T14:16:31.259Z,3.30
2023-05-13T14:18:58.061Z,2.97
2023-05-13T14:21:24.662Z,3.00
2023-05-13T14:23:51.233Z,3.05
2023-05-13T14:26:18.101Z,2.75
2023-05-13T14:28:44.999Z,2.67
2023-05-13T14:31:11.629Z,2.83
2023-05-13T14:33:38.437Z,3.10
2023-05-13T14:36:06.197Z,2.55
2023-05-13T14:38:32.910Z,2.72
2023-05-13T14:40:59.452Z,2.80
2023-05-13T14:43:26.289Z,3.03
2023-05-13T14:45:52.878Z,2.97
2023-05-13T14:48:19.833Z,2.78
2023-05-13T14:50:47.018Z,3.05
2023-05-13T14:53:13.848Z,2.78
2023-05-13T14:55:40.430Z,2.65
2023-05-13T14:58:09.981Z,2.90
2023-05-13T15:00:39.838Z,2.90
2023-05-13T15:03:06.771Z,2.63
2023-05-13T15:05:33.576Z,2.42
2023-05-13T15:08:00.932Z,2.70
2023-05-13T15:10:27.493Z,2.85
2023-05-13T15:12:54.183Z,2.95
2023-05-13T15:15:20.765Z,3.00
2023-05-13T15:17:47.499Z,2.78
2023-05-13T15:20:14.161Z,3.00
2023-05-13T15:22:40.707Z,2.53
2023-05-13T15:25:08.011Z,2.97
2023-05-13T15:27:34.848Z,2.90
2023-05-13T15:30:01.677Z,2.50
2023-05-13T15:32:28.388Z,2.80
2023-05-13T15:34:54.947Z,3.00
2023-05-13T15:37:21.581Z,2.90
2023-05-13T15:39:48.152Z,2.95
2023-05-13T15:42:14.795Z,2.92
2023-05-13T15:44:41.340Z,3.22
2023-05-13T15:47:08.100Z,2.85
2023-05-13T15:49:34.744Z,3.00
2023-05-13T15:52:01.519Z,2.83
2023-05-13T15:54:28.216Z,2.40
2023-05-13T15:56:56.593Z,2.38
2023-05-13T15:59:23.219Z,2.87
2023-05-13T16:01:49.777Z,2.20
2023-05-13T16:04:16.582Z,3.30
2023-05-13T16:06:43.231Z,2.53
2023-05-13T16:09:10.694Z,2.63
2023-05-13T16:11:37.452Z,2.47
2023-05-13T16:14:04.614Z,2.78
2023-05-13T16:16:31.353Z,2.78
2023-05-13T16:18:58.594Z,2.90
2023-05-13T16:21:25.344Z,4.65
2023-05-13T16:23:51.886Z,4.57
2023-05-13T16:26:18.470Z,3.53
2023-05-13T16:28:44.999Z,3.33
2023-05-13T16:31:11.672Z,2.70
2023-05-13T16:33:39.419Z,2.60
2023-05-13T16:36:06.926Z,3.08
2023-05-13T16:38:35.341Z,2.88
2023-05-13T16:41:01.963Z,3.40
2023-05-13T16:43:28.569Z,3.72
2023-05-13T16:45:56.005Z,3.47
2023-05-13T16:48:22.722Z,6.35
2023-05-13T16:50:49.541Z,3.85
2023-05-13T16:53:16.158Z,4.43
2023-05-13T16:55:42.798Z,7.03
2023-05-13T16:58:09.339Z,2.95
2023-05-13T17:00:35.869Z,3.20
2023-05-13T17:03:02.631Z,2.60
2023-05-13T17:05:30.088Z,4.22
2023-05-13T17:07:56.712Z,4.45
2023-05-13T17:10:23.344Z,5.13
2023-05-13T17:12:50.002Z,4.30
2023-05-13T17:15:16.568Z,6.50
2023-05-13T17:17:43.168Z,4.05
2023-05-13T17:20:10.913Z,3.75
2023-05-13T17:22:37.596Z,3.63
2023-05-13T17:25:04.575Z,2.88
2023-05-13T17:27:31.176Z,2.50
2023-05-13T17:29:57.724Z,2.78
2023-05-13T17:32:24.492Z,2.90
2023-05-13T17:34:51.248Z,2.75
2023-05-13T17:37:17.840Z,2.90
2023-05-13T17:39:44.386Z,2.90
2023-05-13T17:42:11.710Z,2.70
2023-05-13T17:44:38.252Z,2.70
2023-05-13T17:47:04.857Z,2.80
2023-05-13T17:49:31.556Z,2.42
2023-05-13T17:51:58.190Z,2.83
2023-05-13T17:54:24.727Z,2.80
2023-05-13T17:56:51.339Z,2.63
2023-05-13T17:59:17.874Z,2.50
2023-05-13T18:01:44.519Z,2.85
2023-05-13T18:04:11.146Z,2.53
2023-05-13T18:06:37.750Z,2.80
2023-05-13T18:09:04.401Z,2.65
2023-05-13T18:11:31.020Z,2.58
2023-05-13T18:13:57.568Z,2.83
2023-05-13T18:16:24.344Z,2.50
2023-05-13T18:18:51.067Z,2.47
2023-05-13T18:21:17.747Z,2.60
2023-05-13T18:23:45.965Z,2.33
2023-05-13T18:26:12.590Z,2.67
2023-05-13T18:28:41.678Z,2.63
2023-05-13T18:31:08.324Z,2.50
2023-05-13T18:33:34.970Z,2.08
2023-05-13T18:36:01.954Z,2.47
2023-05-13T18:38:28.523Z,2.50
2023-05-13T18:40:55.454Z,2.50
2023-05-13T18:43:22.069Z,2.47
2023-05-13T18:45:48.736Z,2.53
2023-05-13T18:48:15.407Z,2.67
2023-05-13T18:50:42.069Z,2.60
2023-05-13T18:53:08.700Z,2.85
2023-05-13T18:55:36.112Z,2.50
2023-05-13T18:58:02.766Z,2.65
2023-05-13T19:00:29.292Z,2.25
2023-05-13T19:02:56.042Z,2.90
2023-05-13T19:05:23.787Z,2.85
2023-05-13T19:07:50.630Z,3.10
2023-05-13T19:10:17.302Z,2.78
2023-05-13T19:12:43.965Z,2.75
2023-05-13T19:15:11.355Z,2.67
2023-05-13T19:17:40.454Z,2.63
2023-05-13T19:22:34.418Z,3.05
2023-05-13T19:25:01.049Z,2.75
2023-05-13T19:27:27.676Z,3.05
2023-05-13T19:29:54.228Z,2.95
2023-05-13T19:32:20.879Z,3.70
2023-05-13T19:34:47.432Z,3.60
2023-05-13T19:37:13.981Z,3.50
2023-05-13T19:39:40.529Z,2.75
2023-05-13T19:42:07.140Z,2.80
2023-05-13T19:44:34.073Z,3.13
2023-05-13T19:47:00.756Z,3.30
2023-05-13T19:49:27.403Z,3.45
2023-05-13T19:51:54.255Z,3.20
2023-05-13T19:54:21.216Z,3.60
2023-05-13T19:56:47.832Z,4.18
2023-05-13T19:59:14.583Z,3.65
2023-05-13T20:01:41.987Z,4.50
2023-05-13T20:04:09.507Z,4.43
2023-05-13T20:06:36.620Z,3.95
2023-05-13T20:09:03.541Z,4.03
2023-05-13T20:11:31.334Z,3.95
2023-05-13T20:13:59.340Z,3.80
2023-05-13T20:16:25.974Z,3.88
2023-05-13T20:18:52.566Z,4.40
2023-05-13T20:21:19.151Z,4.07
2023-05-13T20:23:45.758Z,3.55
2023-05-13T20:26:12.387Z,3.70
2023-05-13T20:28:38.956Z,4.00
2023-05-13T20:31:05.634Z,3.50
2023-05-13T20:33:32.529Z,3.70
2023-05-13T20:35:59.209Z,3.90
2023-05-13T20:38:25.892Z,3.78
2023-05-13T20:40:52.635Z,3.65
2023-05-13T20:43:19.331Z,3.80
2023-05-13T20:45:46.036Z,4.28
2023-05-13T20:48:13.602Z,3.78
2023-05-13T20:50:40.247Z,4.03
2023-05-13T20:53:07.196Z,4.10
2023-05-13T20:55:33.864Z,4.25
2023-05-13T20:58:00.762Z,4.28
2023-05-13T21:00:27.385Z,5.00
2023-05-13T21:02:54.089Z,4.15
2023-05-13T21:05:21.034Z,4.25
2023-05-13T21:07:47.820Z,4.18
2023-05-13T21:10:14.374Z,4.18
2023-05-13T21:12:41.288Z,3.90
2023-05-13T21:15:08.592Z,4.28
2023-05-13T21:17:35.227Z,4.28
2023-05-13T21:20:01.980Z,4.45
2023-05-13T21:22:28.582Z,4.40
2023-05-13T21:24:55.198Z,4.38
2023-05-13T21:27:21.845Z,4.03
2023-05-13T21:29:48.465Z,4.15
2023-05-13T21:32:16.373Z,4.40
2023-05-13T21:34:42.994Z,4.20
2023-05-13T21:37:09.623Z,4.30
2023-05-13T21:39:36.170Z,4.30
2023-05-13T21:42:03.351Z,4.60
2023-05-13T21:44:29.992Z,4.40
2023-05-13T21:46:56.781Z,5.15
2023-05-13T21:49:24.060Z,4.63
2023-05-13T21:51:51.366Z,4.75
2023-05-13T21:54:18.900Z,5.22
2023-05-13T21:56:45.975Z,5.20
2023-05-13T21:59:12.684Z,4.50
2023-05-13T22:01:39.289Z,5.13
2023-05-13T22:04:05.950Z,5.30
2023-05-13T22:06:33.540Z,4.32
2023-05-13T22:09:01.163Z,4.80
2023-05-13T22:11:27.829Z,5.07
2023-05-13T22:13:54.393Z,4.63
2023-05-13T22:16:21.468Z,4.97
2023-05-13T22:18:49.753Z,4.55
2023-05-13T22:21:16.748Z,4.60
2023-05-13T22:23:43.336Z,4.60
2023-05-13T22:26:10.059Z,4.72
2023-05-13T22:28:36.659Z,5.10
2023-05-13T22:31:03.277Z,4.90
2023-05-13T22:33:29.969Z,6.00
2023-05-13T22:35:56.567Z,5.85
2023-05-13T22:38:23.141Z,5.05
2023-05-13T22:40:49.724Z,4.85
2023-05-13T22:43:16.324Z,5.25
2023-05-13T22:45:42.962Z,4.70
2023-05-13T22:48:09.685Z,4.93
2023-05-13T22:50:36.323Z,5.28
2023-05-13T22:53:03.003Z,4.50
2023-05-13T22:55:29.582Z,4.80
2023-05-13T22:57:56.236Z,4.95
2023-05-13T23:00:23.215Z,4.35
2023-05-13T23:02:49.909Z,5.07
2023-05-13T23:05:16.645Z,4.60
2023-05-13T23:07:43.214Z,5.05
2023-05-13T23:10:11.180Z,4.85
2023-05-13T23:12:38.902Z,5.30
2023-05-13T23:15:07.007Z,5.70
2023-05-13T23:17:33.932Z,5.07
2023-05-13T23:20:00.758Z,4.90
2023-05-13T23:22:27.384Z,4.88
2023-05-13T23:24:53.936Z,5.15
2023-05-13T23:27:20.730Z,5.15
2023-05-13T23:29:47.347Z,4.75
2023-05-13T23:32:13.966Z,4.82
2023-05-13T23:34:40.765Z,5.28
2023-05-13T23:37:07.335Z,5.07
2023-05-13T23:39:33.964Z,5.65
2023-05-13T23:42:00.571Z,5.40
2023-05-13T23:44:27.155Z,5.38
2023-05-13T23:46:53.831Z,4.63
2023-05-13T23:49:20.935Z,4.53
2023-05-13T23:51:47.547Z,4.90
2023-05-13T23:54:14.104Z,4.80
2023-05-13T23:56:40.742Z,5.30
2023-05-13T23:59:08.512Z,4.97
